createdAt,value
2017-11-05T00:01:38.665Z,68.10
2017-11-05T00:04:04.707Z,68.55
2017-11-05T00:06:30.669Z,68.75
2017-11-05T00:08:56.616Z,68.57
2017-11-05T00:11:22.553Z,66.68
2017-11-05T00:13:48.510Z,67.16
2017-11-05T00:16:14.457Z,68.06
2017-11-05T00:18:40.435Z,67.62
2017-11-05T00:21:06.416Z,67.69
2017-11-05T00:23:32.401Z,67.40
2017-11-05T00:25:58.486Z,67.68
2017-11-05T00:28:24.434Z,67.25
2017-11-05T00:30:50.460Z,69.12
2017-11-05T00:33:16.424Z,68.04
2017-11-05T00:35:42.360Z,67.28
2017-11-05T00:38:08.310Z,67.53
2017-11-05T00:40:35.353Z,67.01
2017-11-05T00:43:01.306Z,67.85
2017-11-05T00:45:27.307Z,67.27
2017-11-05T00:47:53.249Z,68.14
2017-11-05T00:50:19.253Z,67.68
2017-11-05T00:52:45.238Z,66.62
2017-11-05T00:55:11.201Z,66.89
2017-11-05T00:57:37.224Z,67.90
2017-11-05T01:00:03.193Z,67.55
2017-11-05T01:02:29.129Z,66.94
2017-11-05T01:04:55.108Z,67.76
2017-11-05T01:07:21.115Z,66.48
2017-11-05T01:09:47.083Z,67.65
2017-11-05T01:12:13.078Z,68.93
2017-11-05T01:14:39.034Z,67.25
2017-11-05T01:17:05.038Z,67.35
2017-11-05T01:22:02.374Z,66.82
2017-11-05T01:27:00.211Z,67.82
2017-11-05T01:29:29.213Z,68.09
2017-11-05T01:31:55.165Z,67.56
2017-11-05T01:34:21.125Z,67.55
2017-11-05T01:36:47.136Z,67.43
2017-11-05T01:39:13.092Z,67.83
2017-11-05T01:41:39.075Z,68.20
2017-11-05T01:44:05.050Z,68.77
2017-11-05T01:46:30.990Z,68.03
2017-11-05T01:48:56.943Z,68.45
2017-11-05T01:51:22.881Z,68.60
2017-11-05T01:53:48.833Z,68.34
2017-11-05T01:56:14.779Z,67.40
2017-11-05T01:58:40.739Z,67.24
2017-11-05T02:01:06.731Z,66.79
2017-11-05T02:03:32.669Z,67.59
2017-11-05T02:05:58.939Z,67.12
2017-11-05T02:08:24.949Z,68.19
2017-11-05T02:10:50.900Z,67.38
2017-11-05T02:13:16.828Z,68.36
2017-11-05T02:15:42.788Z,68.13
2017-11-05T02:18:08.731Z,67.85
2017-11-05T02:20:34.679Z,67.71
2017-11-05T02:23:00.631Z,67.41
2017-11-05T02:25:26.579Z,66.67
2017-11-05T02:27:52.549Z,67.73
2017-11-05T02:30:18.487Z,66.80
2017-11-05T02:32:44.469Z,68.38
2017-11-05T02:35:10.418Z,66.65
2017-11-05T02:37:36.359Z,67.42
2017-11-05T02:40:02.337Z,67.21
2017-11-05T02:42:28.255Z,67.35
2017-11-05T02:44:54.211Z,67.28
2017-11-05T02:47:20.189Z,66.54
2017-11-05T02:49:46.136Z,67.21
2017-11-05T02:52:12.130Z,67.92
2017-11-05T02:54:38.073Z,67.92
2017-11-05T02:57:03.997Z,68.40
2017-11-05T02:59:29.959Z,68.55
2017-11-05T03:01:55.916Z,68.17
2017-11-05T03:04:21.873Z,67.90
2017-11-05T03:06:47.810Z,67.85
2017-11-05T03:09:13.776Z,67.83
2017-11-05T03:11:39.755Z,68.27
2017-11-05T03:14:05.685Z,68.34
2017-11-05T03:16:31.666Z,67.08
2017-11-05T03:18:57.641Z,66.96
2017-11-05T03:21:23.563Z,66.84
2017-11-05T03:23:49.820Z,67.64
2017-11-05T03:26:15.804Z,68.42
2017-11-05T03:28:41.769Z,67.86
2017-11-05T03:31:07.706Z,67.63
2017-11-05T03:33:33.713Z,67.61
2017-11-05T03:35:59.649Z,68.29
2017-11-05T03:38:25.614Z,68.25
2017-11-05T03:40:51.599Z,67.96
2017-11-05T03:43:17.541Z,66.80
2017-11-05T03:45:43.477Z,67.64
2017-11-05T03:48:09.429Z,67.43
2017-11-05T03:50:35.375Z,67.88
2017-11-05T03:53:01.352Z,66.59
2017-11-05T03:55:27.294Z,67.12
2017-11-05T03:57:53.260Z,66.78
2017-11-05T04:00:19.222Z,66.96
2017-11-05T04:02:45.160Z,66.87
2017-11-05T04:05:11.099Z,68.22
2017-11-05T04:07:37.038Z,67.47
2017-11-05T04:10:03.000Z,67.33
2017-11-05T04:12:28.955Z,66.59
2017-11-05T04:14:54.913Z,67.36
2017-11-05T04:17:20.863Z,67.53
2017-11-05T04:19:46.827Z,68.01
2017-11-05T04:22:12.797Z,67.94
2017-11-05T04:24:38.730Z,67.42
2017-11-05T04:27:04.678Z,67.13
2017-11-05T04:29:30.627Z,68.18
2017-11-05T04:31:56.576Z,67.75
2017-11-05T04:34:22.531Z,67.46
2017-11-05T04:36:48.485Z,67.47
2017-11-05T04:39:14.417Z,67.29
2017-11-05T04:41:40.394Z,67.48
2017-11-05T04:44:06.382Z,67.40
2017-11-05T04:46:32.371Z,67.62
2017-11-05T04:48:58.296Z,67.66
2017-11-05T04:51:24.279Z,67.11
2017-11-05T04:53:50.214Z,66.32
2017-11-05T04:56:16.169Z,67.85
2017-11-05T04:58:42.118Z,67.53
2017-11-05T05:01:08.104Z,67.44
2017-11-05T05:03:34.074Z,68.17
2017-11-05T05:06:00.021Z,67.87
2017-11-05T05:08:25.962Z,67.16
2017-11-05T05:10:51.889Z,68.20
2017-11-05T05:13:17.820Z,67.88
2017-11-05T05:15:43.760Z,68.22
2017-11-05T05:18:09.703Z,68.29
2017-11-05T05:20:35.644Z,68.39
2017-11-05T05:23:01.650Z,68.78
2017-11-05T05:25:27.589Z,68.01
2017-11-05T05:27:53.544Z,68.41
2017-11-05T05:30:19.487Z,68.29
2017-11-05T05:32:45.433Z,67.45
2017-11-05T05:35:11.428Z,67.10
2017-11-05T05:37:37.466Z,68.48
2017-11-05T05:40:03.475Z,67.97
2017-11-05T05:42:29.430Z,68.01
2017-11-05T05:44:55.386Z,66.82
2017-11-05T05:47:21.328Z,67.14
2017-11-05T05:49:47.278Z,67.34
2017-11-05T05:52:13.249Z,67.25
2017-11-05T05:54:39.204Z,67.07
2017-11-05T05:57:05.148Z,67.15
2017-11-05T05:59:31.078Z,66.95
2017-11-05T06:01:57.019Z,66.80
2017-11-05T06:04:22.980Z,66.55
2017-11-05T06:06:48.985Z,66.79
2017-11-05T06:09:14.965Z,67.26
2017-11-05T06:11:40.928Z,67.15
2017-11-05T06:14:06.867Z,67.29
2017-11-05T06:16:32.829Z,67.30
2017-11-05T06:18:58.774Z,68.16
2017-11-05T06:21:24.728Z,67.25
2017-11-05T06:23:50.664Z,67.78
2017-11-05T06:26:16.654Z,68.23
2017-11-05T06:28:42.593Z,68.09
2017-11-05T06:31:08.542Z,67.69
2017-11-05T06:33:34.488Z,67.37
2017-11-05T06:36:00.436Z,67.63
2017-11-05T06:38:26.494Z,67.79
2017-11-05T06:40:52.435Z,67.27
2017-11-05T06:43:18.374Z,67.61
2017-11-05T06:45:44.305Z,66.88
2017-11-05T06:48:10.265Z,66.80
2017-11-05T06:50:36.265Z,67.99
2017-11-05T06:53:02.220Z,67.32
2017-11-05T06:55:28.191Z,66.52
2017-11-05T06:57:54.136Z,66.91
2017-11-05T07:00:20.093Z,67.72
2017-11-05T07:02:46.024Z,66.81
2017-11-05T07:05:12.028Z,66.81
2017-11-05T07:07:37.996Z,66.29
2017-11-05T07:10:04.197Z,66.86
2017-11-05T07:12:30.142Z,66.14
2017-11-05T07:14:56.124Z,66.64
2017-11-05T07:17:22.094Z,65.98
2017-11-05T07:19:48.059Z,66.47
2017-11-05T07:22:14.024Z,66.10
2017-11-05T07:24:40.021Z,65.42
2017-11-05T07:27:05.950Z,65.55
2017-11-05T07:29:31.906Z,65.58
2017-11-05T07:31:57.874Z,65.26
2017-11-05T07:34:23.946Z,64.88
2017-11-05T07:36:49.902Z,65.39
2017-11-05T07:39:15.928Z,65.41
2017-11-05T07:41:41.887Z,65.05
2017-11-05T07:44:07.836Z,65.38
2017-11-05T07:46:33.813Z,65.82
2017-11-05T07:48:59.764Z,65.16
2017-11-05T07:51:25.716Z,65.13
2017-11-05T07:53:51.724Z,64.92
2017-11-05T07:56:17.683Z,65.42
2017-11-05T07:58:43.646Z,65.08
2017-11-05T08:01:09.587Z,64.84
2017-11-05T08:03:35.538Z,64.85
2017-11-05T08:06:01.532Z,64.15
2017-11-05T08:08:27.464Z,64.71
2017-11-05T08:10:53.456Z,64.10
2017-11-05T08:13:19.408Z,64.41
2017-11-05T08:15:45.350Z,64.22
2017-11-05T08:18:11.302Z,64.06
2017-11-05T08:20:37.266Z,64.17
2017-11-05T08:23:03.196Z,63.94
2017-11-05T08:25:29.197Z,63.94
2017-11-05T08:27:55.143Z,63.63
2017-11-05T08:30:21.139Z,64.06
2017-11-05T08:32:47.080Z,64.01
2017-11-05T08:35:13.024Z,64.48
2017-11-05T08:37:39.034Z,63.83
2017-11-05T08:40:04.980Z,63.20
2017-11-05T08:42:30.928Z,63.40
2017-11-05T08:44:56.856Z,63.33
2017-11-05T08:47:22.781Z,63.30
2017-11-05T08:49:48.796Z,63.38
2017-11-05T08:52:14.786Z,63.33
2017-11-05T08:54:40.740Z,63.21
2017-11-05T08:57:06.670Z,63.67
2017-11-05T08:59:33.712Z,63.32
2017-11-05T09:01:59.666Z,63.09
2017-11-05T09:04:25.614Z,63.35
2017-11-05T09:06:51.576Z,63.06
2017-11-05T09:09:17.510Z,62.82
2017-11-05T09:11:43.507Z,63.09
2017-11-05T09:14:09.469Z,63.03
2017-11-05T09:16:35.409Z,63.05
2017-11-05T09:19:01.415Z,62.99
2017-11-05T09:21:27.353Z,63.00
2017-11-05T09:23:53.359Z,63.25
2017-11-05T09:26:19.297Z,63.30
2017-11-05T09:28:45.220Z,63.86
2017-11-05T09:31:11.181Z,64.12
2017-11-05T09:33:37.102Z,63.77
2017-11-05T09:36:03.073Z,63.68
2017-11-05T09:38:29.074Z,64.08
2017-11-05T09:40:55.204Z,64.61
2017-11-05T09:43:21.147Z,64.20
2017-11-05T09:45:47.100Z,64.13
2017-11-05T09:48:13.046Z,63.80
2017-11-05T09:50:38.984Z,64.59
2017-11-05T09:53:04.996Z,64.42
2017-11-05T09:55:30.947Z,64.23
2017-11-05T09:57:56.873Z,64.16
2017-11-05T10:00:22.892Z,63.95
2017-11-05T10:02:48.907Z,63.97
2017-11-05T10:05:15.004Z,64.40
2017-11-05T10:07:40.976Z,64.24
2017-11-05T10:10:06.934Z,64.11
2017-11-05T10:12:32.890Z,63.84
2017-11-05T10:14:58.812Z,63.94
2017-11-05T10:17:24.850Z,64.05
2017-11-05T10:19:50.908Z,63.61
2017-11-05T10:22:16.866Z,63.35
2017-11-05T10:24:43.029Z,63.37
2017-11-05T10:27:08.993Z,63.56
2017-11-05T10:29:34.934Z,63.71
2017-11-05T10:32:00.884Z,63.63
2017-11-05T10:34:26.831Z,63.65
2017-11-05T10:36:52.784Z,63.55
2017-11-05T10:39:18.741Z,63.50
2017-11-05T10:41:44.874Z,63.62
2017-11-05T10:44:10.883Z,63.75
2017-11-05T10:46:36.837Z,64.34
2017-11-05T10:49:02.782Z,63.67
2017-11-05T10:51:28.755Z,63.78
2017-11-05T10:53:54.904Z,63.44
2017-11-05T10:56:20.909Z,63.02
2017-11-05T10:58:46.856Z,63.55
2017-11-05T11:01:12.798Z,63.85
2017-11-05T11:03:38.818Z,63.16
2017-11-05T11:06:04.837Z,63.41
2017-11-05T11:08:30.784Z,63.55
2017-11-05T11:10:56.734Z,63.54
2017-11-05T11:13:22.701Z,63.30
2017-11-05T11:15:48.662Z,63.69
2017-11-05T11:18:14.600Z,63.17
2017-11-05T11:20:40.602Z,63.28
2017-11-05T11:23:06.577Z,63.52
2017-11-05T11:25:33.624Z,63.50
2017-11-05T11:27:59.576Z,63.46
2017-11-05T11:30:25.564Z,63.54
2017-11-05T11:32:52.649Z,63.14
2017-11-05T11:35:18.624Z,62.82
2017-11-05T11:37:44.648Z,63.03
2017-11-05T11:40:10.604Z,63.74
2017-11-05T11:42:36.613Z,63.14
2017-11-05T11:45:02.620Z,63.80
2017-11-05T11:47:32.459Z,63.50
2017-11-05T11:49:58.440Z,63.26
2017-11-05T11:52:24.405Z,63.32
2017-11-05T11:59:53.723Z,63.82
2017-11-05T12:02:19.667Z,63.66
2017-11-05T12:04:45.609Z,63.88
2017-11-05T12:07:11.570Z,63.64
2017-11-05T12:09:37.515Z,63.08
2017-11-05T12:12:03.501Z,63.16
2017-11-05T12:14:29.456Z,63.28
2017-11-05T12:16:55.407Z,63.63
2017-11-05T12:19:21.424Z,62.82
2017-11-05T12:21:47.419Z,63.15
2017-11-05T12:24:13.395Z,62.49
2017-11-05T12:26:39.331Z,62.55
2017-11-05T12:29:05.311Z,62.65
2017-11-05T12:31:31.298Z,62.61
2017-11-05T12:33:58.288Z,62.40
2017-11-05T12:36:24.275Z,62.58
2017-11-05T12:38:50.349Z,62.63
2017-11-05T12:41:16.405Z,62.74
2017-11-05T12:43:42.473Z,63.17
2017-11-05T12:46:08.449Z,62.35
2017-11-05T12:48:34.416Z,62.50
2017-11-05T12:51:00.361Z,62.79
2017-11-05T12:53:26.330Z,64.28
2017-11-05T12:55:52.287Z,63.38
2017-11-05T12:58:18.300Z,63.51
2017-11-05T13:00:44.239Z,62.62
2017-11-05T13:03:10.399Z,62.37
2017-11-05T13:05:36.396Z,62.42
2017-11-05T13:08:02.359Z,62.45
2017-11-05T13:10:28.313Z,62.43
2017-11-05T13:12:54.283Z,62.36
2017-11-05T13:15:20.270Z,62.34
2017-11-05T13:17:46.252Z,62.39
2017-11-05T13:20:12.240Z,62.17
2017-11-05T13:22:38.229Z,62.16
2017-11-05T13:25:04.185Z,62.71
2017-11-05T13:27:30.167Z,62.56
2017-11-05T13:29:56.108Z,62.46
2017-11-05T13:32:22.103Z,62.66
2017-11-05T13:34:48.044Z,62.48
2017-11-05T13:37:14.009Z,62.41
2017-11-05T13:39:39.961Z,62.70
2017-11-05T13:42:06.020Z,62.68
2017-11-05T13:44:33.316Z,63.41
2017-11-05T13:46:59.420Z,64.15
2017-11-05T13:49:25.379Z,63.77
2017-11-05T13:51:51.346Z,63.65
2017-11-05T13:54:17.293Z,63.61
2017-11-05T13:56:43.236Z,63.45
2017-11-05T13:59:09.169Z,65.20
2017-11-05T14:01:35.145Z,63.05
2017-11-05T14:04:01.088Z,62.99
2017-11-05T14:06:27.032Z,62.69
2017-11-05T14:08:52.989Z,62.78
2017-11-05T14:11:18.970Z,62.39
2017-11-05T14:13:45.049Z,62.51
2017-11-05T14:16:10.998Z,62.45
2017-11-05T14:18:36.959Z,62.07
2017-11-05T14:21:02.923Z,62.42
2017-11-05T14:23:28.886Z,62.55
2017-11-05T14:25:54.913Z,62.31
2017-11-05T14:28:21.080Z,62.54
2017-11-05T14:30:47.058Z,62.66
2017-11-05T14:33:13.045Z,62.30
2017-11-05T14:35:38.992Z,62.18
2017-11-05T14:38:04.951Z,62.32
2017-11-05T14:40:30.902Z,62.98
2017-11-05T14:42:56.879Z,62.51
2017-11-05T14:45:22.863Z,63.09
2017-11-05T14:47:48.793Z,63.08
2017-11-05T14:50:14.778Z,62.82
2017-11-05T14:52:40.762Z,62.73
2017-11-05T14:55:06.714Z,63.57
2017-11-05T14:57:32.660Z,63.28
2017-11-05T14:59:58.641Z,62.88
2017-11-05T15:02:25.642Z,63.10
2017-11-05T15:04:51.666Z,63.12
2017-11-05T15:07:17.616Z,62.72
2017-11-05T15:09:43.628Z,62.57
2017-11-05T15:12:09.575Z,63.00
2017-11-05T15:14:35.516Z,62.97
2017-11-05T15:17:01.470Z,62.96
2017-11-05T15:19:27.411Z,63.04
2017-11-05T15:21:53.412Z,63.33
2017-11-05T15:24:19.416Z,63.41
2017-11-05T15:26:45.364Z,63.49
2017-11-05T15:29:11.340Z,63.67
2017-11-05T15:31:37.273Z,62.81
2017-11-05T15:34:03.289Z,62.99
2017-11-05T15:36:29.352Z,64.08
2017-11-05T15:38:55.296Z,63.71
2017-11-05T15:41:21.268Z,63.61
2017-11-05T15:43:47.234Z,63.40
2017-11-05T15:46:13.204Z,64.03
2017-11-05T15:48:39.145Z,64.22
2017-11-05T15:51:05.116Z,63.75
2017-11-05T15:53:31.041Z,64.17
2017-11-05T15:55:57.072Z,64.28
2017-11-05T15:58:23.052Z,63.98
2017-11-05T16:00:49.304Z,63.77
2017-11-05T16:03:15.236Z,64.08
2017-11-05T16:05:41.152Z,64.31
2017-11-05T16:08:07.076Z,64.39
2017-11-05T16:10:33.056Z,64.21
2017-11-05T16:12:59.008Z,64.45
2017-11-05T16:15:24.978Z,64.84
2017-11-05T16:17:50.906Z,64.81
2017-11-05T16:20:16.838Z,64.72
2017-11-05T16:22:42.769Z,65.00
2017-11-05T16:25:08.722Z,65.10
2017-11-05T16:27:34.704Z,65.26
2017-11-05T16:30:00.652Z,65.37
2017-11-05T16:32:26.600Z,65.53
2017-11-05T16:34:52.552Z,65.21
2017-11-05T16:37:18.484Z,65.57
2017-11-05T16:39:44.416Z,65.49
2017-11-05T16:42:10.376Z,65.69
2017-11-05T16:44:36.308Z,65.32
2017-11-05T16:47:02.327Z,65.16
2017-11-05T16:49:28.310Z,65.09
2017-11-05T16:51:54.272Z,65.33
2017-11-05T16:54:20.276Z,65.17
2017-11-05T16:56:46.228Z,65.55
2017-11-05T16:59:12.210Z,65.49
2017-11-05T17:01:38.160Z,65.81
2017-11-05T17:04:04.115Z,65.25
2017-11-05T17:06:30.084Z,65.12
2017-11-05T17:08:56.027Z,65.58
2017-11-05T17:11:21.983Z,65.89
2017-11-05T17:13:48.031Z,65.41
2017-11-05T17:16:13.990Z,65.34
2017-11-05T17:18:39.963Z,66.75
2017-11-05T17:21:06.026Z,67.05
2017-11-05T17:23:31.981Z,66.76
2017-11-05T17:25:57.927Z,66.78
2017-11-05T17:28:23.938Z,68.15
2017-11-05T17:30:49.908Z,68.39
2017-11-05T17:33:15.859Z,68.13
2017-11-05T17:35:42.153Z,68.65
2017-11-05T17:38:08.178Z,69.33
2017-11-05T17:40:34.174Z,70.32
2017-11-05T17:43:00.194Z,69.90
2017-11-05T17:45:26.131Z,70.50
2017-11-05T17:47:52.485Z,71.04
2017-11-05T17:50:18.454Z,71.25
2017-11-05T17:52:44.401Z,71.04
2017-11-05T17:55:10.584Z,72.00
2017-11-05T17:57:36.562Z,71.73
2017-11-05T18:00:02.520Z,71.46
2017-11-05T18:02:28.876Z,71.55
2017-11-05T18:04:54.912Z,71.41
2017-11-05T18:07:20.914Z,73.45
2017-11-05T18:09:46.931Z,72.98
2017-11-05T18:12:12.892Z,72.54
2017-11-05T18:14:38.837Z,73.09
2017-11-05T18:17:04.992Z,73.15
2017-11-05T18:19:31.178Z,73.21
2017-11-05T18:21:57.588Z,73.55
2017-11-05T18:24:24.011Z,72.77
2017-11-05T18:26:50.301Z,72.03
2017-11-05T18:29:16.840Z,72.11
2017-11-05T18:31:43.202Z,72.20
2017-11-05T18:34:09.490Z,72.15
2017-11-05T18:36:35.461Z,72.14
2017-11-05T18:39:01.436Z,72.44
2017-11-05T18:41:27.388Z,72.96
2017-11-05T18:43:53.328Z,73.71
2017-11-05T18:46:19.315Z,73.89
2017-11-05T18:48:45.271Z,74.11
2017-11-05T18:51:11.293Z,74.62
2017-11-05T18:53:37.248Z,73.99
2017-11-05T18:56:03.373Z,74.40
2017-11-05T18:58:29.329Z,73.74
2017-11-05T19:00:55.297Z,73.68
2017-11-05T19:10:06.754Z,73.09
2017-11-05T19:12:32.702Z,77.69
2017-11-05T19:14:58.663Z,75.59
2017-11-05T19:17:24.597Z,75.49
2017-11-05T19:19:50.549Z,75.38
2017-11-05T19:22:16.504Z,76.75
2017-11-05T19:24:42.446Z,74.52
2017-11-05T19:27:08.465Z,73.97
2017-11-05T19:29:34.424Z,73.59
2017-11-05T19:32:01.396Z,72.84
2017-11-05T19:34:27.367Z,72.58
2017-11-05T19:36:53.312Z,72.50
2017-11-05T19:39:19.284Z,70.77
2017-11-05T19:41:45.248Z,71.63
2017-11-05T19:44:11.204Z,71.61
2017-11-05T19:46:37.176Z,71.50
2017-11-05T19:49:03.142Z,71.15
2017-11-05T19:51:29.109Z,70.99
2017-11-05T19:53:55.075Z,71.02
2017-11-05T19:56:21.040Z,71.15
2017-11-05T19:58:46.990Z,71.03
2017-11-05T20:01:12.943Z,71.72
2017-11-05T20:03:38.883Z,71.37
2017-11-05T20:06:04.905Z,71.02
2017-11-05T20:08:30.948Z,71.62
2017-11-05T20:10:56.886Z,71.55
2017-11-05T20:13:22.926Z,71.93
2017-11-05T20:15:48.880Z,72.04
2017-11-05T20:18:14.855Z,72.28
2017-11-05T20:20:40.824Z,71.97
2017-11-05T20:23:06.913Z,71.87
2017-11-05T20:25:32.876Z,71.87
2017-11-05T20:27:58.820Z,71.54
2017-11-05T20:30:24.852Z,71.65
2017-11-05T20:32:50.870Z,71.50
2017-11-05T20:35:16.840Z,71.09
2017-11-05T20:37:42.820Z,71.34
2017-11-05T20:40:08.839Z,71.51
2017-11-05T20:42:34.802Z,71.49
2017-11-05T20:45:04.797Z,71.64
2017-11-05T20:47:30.779Z,71.34
2017-11-05T20:49:56.716Z,71.13
2017-11-05T20:52:22.844Z,71.48
2017-11-05T20:54:49.697Z,71.67
2017-11-05T20:57:15.644Z,71.07
2017-11-05T20:59:41.596Z,71.11
2017-11-05T21:02:07.552Z,71.95
2017-11-05T21:04:33.490Z,71.37
2017-11-05T21:06:59.425Z,71.44
2017-11-05T21:09:25.375Z,71.28
2017-11-05T21:11:51.305Z,70.82
2017-11-05T21:14:17.247Z,70.75
2017-11-05T21:16:43.192Z,70.15
2017-11-05T21:19:09.138Z,70.84
2017-11-05T21:21:35.088Z,71.14
2017-11-05T21:24:01.042Z,70.16
2017-11-05T21:26:26.998Z,70.58
2017-11-05T21:28:52.976Z,69.71
2017-11-05T21:31:18.932Z,69.76
2017-11-05T21:33:44.867Z,69.52
2017-11-05T21:36:10.844Z,70.01
2017-11-05T21:38:36.813Z,70.36
2017-11-05T21:41:02.789Z,70.16
2017-11-05T21:43:28.719Z,69.99
2017-11-05T21:45:54.703Z,69.07
2017-11-05T21:48:20.644Z,68.82
2017-11-05T21:50:46.577Z,69.45
2017-11-05T21:53:12.512Z,69.47
2017-11-05T21:55:38.472Z,69.31
2017-11-05T21:58:04.567Z,68.98
2017-11-05T22:00:30.505Z,69.04
2017-11-05T22:02:56.457Z,69.28
2017-11-05T22:05:22.408Z,69.56
2017-11-05T22:07:48.372Z,69.35
2017-11-05T22:10:14.499Z,69.74
2017-11-05T22:12:40.491Z,69.48
2017-11-05T22:15:06.441Z,69.52
2017-11-05T22:17:32.380Z,69.30
2017-11-05T22:19:58.394Z,69.38
2017-11-05T22:22:24.360Z,69.23
2017-11-05T22:24:50.341Z,69.66
2017-11-05T22:27:16.291Z,68.78
2017-11-05T22:29:42.227Z,69.39
2017-11-05T22:32:08.191Z,69.29
2017-11-05T22:34:34.138Z,69.21
2017-11-05T22:37:00.162Z,69.38
2017-11-05T22:39:26.162Z,69.14
2017-11-05T22:41:52.113Z,69.31
2017-11-05T22:44:18.089Z,69.42
2017-11-05T22:46:44.188Z,69.00
2017-11-05T22:49:10.180Z,68.96
2017-11-05T22:51:36.140Z,68.94
2017-11-05T22:54:02.109Z,69.31
2017-11-05T22:56:28.084Z,69.60
2017-11-05T22:58:54.035Z,69.58
2017-11-05T23:01:20.011Z,69.36
2017-11-05T23:03:45.983Z,69.26
2017-11-05T23:06:11.928Z,70.11
2017-11-05T23:08:37.918Z,70.33
2017-11-05T23:11:03.854Z,69.54
2017-11-05T23:13:29.817Z,69.82
2017-11-05T23:15:55.792Z,69.57
2017-11-05T23:18:21.737Z,70.18
2017-11-05T23:20:47.675Z,69.74
2017-11-05T23:23:13.609Z,70.05
2017-11-05T23:25:39.594Z,69.73
2017-11-05T23:28:05.520Z,70.38
2017-11-05T23:30:31.527Z,70.61
2017-11-05T23:32:57.462Z,70.72
2017-11-05T23:35:23.440Z,70.77
2017-11-05T23:37:49.390Z,70.38
2017-11-05T23:40:15.334Z,70.19
2017-11-05T23:42:41.292Z,69.96
2017-11-05T23:45:07.235Z,69.64
2017-11-05T23:47:33.222Z,69.82
2017-11-05T23:49:59.224Z,69.28
2017-11-05T23:52:25.189Z,69.50
2017-11-05T23:54:51.115Z,69.26
2017-11-05T23:57:17.094Z,69.39
2017-11-05T23:59:43.055Z,69.48
